sensor_id;sensor_type;location;lat;lon;timestamp;temperature;humidity
22192;DHT22;11261;52.456;10.850;2022-10-17T00:00:59;13.80;99.90
22192;DHT22;11261;52.456;10.850;2022-10-17T00:03:27;13.80;99.90
22192;DHT22;11261;52.456;10.850;2022-10-17T00:05:55;13.70;99.90
22192;DHT22;11261;52.456;10.850;2022-10-17T00:08:24;13.50;99.90
22192;DHT22;11261;52.456;10.850;2022-10-17T00:10:56;13.50;99.90
22192;DHT22;11261;52.456;10.850;2022-10-17T00:13:25;13.50;99.90
22192;DHT22;11261;52.456;10.850;2022-10-17T00:15:53;13.40;99.90
22192;DHT22;11261;52.456;10.850;2022-10-17T00:18:23;13.30;99.90
22192;DHT22;11261;52.456;10.850;2022-10-17T00:20:51;13.20;99.90
22192;DHT22;11261;52.456;10.850;2022-10-17T00:23:19;13.20;99.90
22192;DHT22;11261;52.456;10.850;2022-10-17T00:25:57;13.20;99.90
22192;DHT22;11261;52.456;10.850;2022-10-17T00:28:25;13.20;99.90
22192;DHT22;11261;52.456;10.850;2022-10-17T00:30:57;13.20;99.90
22192;DHT22;11261;52.456;10.850;2022-10-17T00:33:27;13.20;99.90
22192;DHT22;11261;52.456;10.850;2022-10-17T00:36:05;13.20;99.90
22192;DHT22;11261;52.456;10.850;2022-10-17T00:38:33;13.30;99.90
22192;DHT22;11261;52.456;10.850;2022-10-17T00:41:02;13.20;99.90
22192;DHT22;11261;52.456;10.850;2022-10-17T00:43:48;13.10;99.90
22192;DHT22;11261;52.456;10.850;2022-10-17T00:46:16;13.00;99.90
22192;DHT22;11261;52.456;10.850;2022-10-17T00:48:47;13.10;99.90
22192;DHT22;11261;52.456;10.850;2022-10-17T00:51:19;13.10;99.90
22192;DHT22;11261;52.456;10.850;2022-10-17T00:53:48;13.30;99.90
22192;DHT22;11261;52.456;10.850;2022-10-17T00:56:18;13.30;99.90
22192;DHT22;11261;52.456;10.850;2022-10-17T00:58:47;13.20;99.90
22192;DHT22;11261;52.456;10.850;2022-10-17T01:01:16;13.30;99.90
22192;DHT22;11261;52.456;10.850;2022-10-17T01:03:45;13.40;99.90
22192;DHT22;11261;52.456;10.850;2022-10-17T01:06:13;13.40;99.90
22192;DHT22;11261;52.456;10.850;2022-10-17T01:08:41;13.40;99.90
22192;DHT22;11261;52.456;10.850;2022-10-17T01:11:20;13.30;99.90
22192;DHT22;11261;52.456;10.850;2022-10-17T01:13:54;13.10;99.90
22192;DHT22;11261;52.456;10.850;2022-10-17T01:16:31;13.00;99.90
22192;DHT22;11261;52.456;10.850;2022-10-17T01:19:14;12.90;99.90
22192;DHT22;11261;52.456;10.850;2022-10-17T01:21:56;12.90;99.90
22192;DHT22;11261;52.456;10.850;2022-10-17T01:24:48;12.90;99.90
22192;DHT22;11261;52.456;10.850;2022-10-17T01:27:48;12.90;99.90
22192;DHT22;11261;52.456;10.850;2022-10-17T01:30:56;13.00;99.90
22192;DHT22;11261;52.456;10.850;2022-10-17T01:33:52;13.00;99.90
22192;DHT22;11261;52.456;10.850;2022-10-17T01:36:34;13.10;99.90
22192;DHT22;11261;52.456;10.850;2022-10-17T01:39:12;13.10;99.90
22192;DHT22;11261;52.456;10.850;2022-10-17T01:41:45;13.10;99.90
22192;DHT22;11261;52.456;10.850;2022-10-17T01:44:18;13.10;99.90
22192;DHT22;11261;52.456;10.850;2022-10-17T01:46:51;13.30;99.90
22192;DHT22;11261;52.456;10.850;2022-10-17T01:49:26;13.20;99.90
22192;DHT22;11261;52.456;10.850;2022-10-17T01:51:59;13.00;99.90
22192;DHT22;11261;52.456;10.850;2022-10-17T01:54:31;13.00;99.90
22192;DHT22;11261;52.456;10.850;2022-10-17T01:57:04;13.00;99.90
22192;DHT22;11261;52.456;10.850;2022-10-17T01:59:37;13.00;99.90
22192;DHT22;11261;52.456;10.850;2022-10-17T02:02:08;13.00;99.90
22192;DHT22;11261;52.456;10.850;2022-10-17T02:04:40;13.10;99.90
22192;DHT22;11261;52.456;10.850;2022-10-17T02:07:10;13.10;99.90
22192;DHT22;11261;52.456;10.850;2022-10-17T02:09:39;13.10;99.90
22192;DHT22;11261;52.456;10.850;2022-10-17T02:12:25;13.10;99.90
22192;DHT22;11261;52.456;10.850;2022-10-17T02:17:57;13.00;99.90
22192;DHT22;11261;52.456;10.850;2022-10-17T02:20:39;12.90;99.90
22192;DHT22;11261;52.456;10.850;2022-10-17T02:23:12;13.00;99.90
22192;DHT22;11261;52.456;10.850;2022-10-17T02:25:53;12.90;99.90
22192;DHT22;11261;52.456;10.850;2022-10-17T02:28:29;12.90;99.90
22192;DHT22;11261;52.456;10.850;2022-10-17T02:31:03;12.90;99.90
22192;DHT22;11261;52.456;10.850;2022-10-17T02:33:41;13.00;99.90
22192;DHT22;11261;52.456;10.850;2022-10-17T02:36:16;13.00;99.90
22192;DHT22;11261;52.456;10.850;2022-10-17T02:38:47;13.00;99.90
22192;DHT22;11261;52.456;10.850;2022-10-17T02:41:18;12.90;99.90
22192;DHT22;11261;52.456;10.850;2022-10-17T02:43:48;12.80;99.90
22192;DHT22;11261;52.456;10.850;2022-10-17T02:46:18;12.70;99.90
22192;DHT22;11261;52.456;10.850;2022-10-17T02:48:51;12.70;99.90
22192;DHT22;11261;52.456;10.850;2022-10-17T02:51:24;12.60;99.90
22192;DHT22;11261;52.456;10.850;2022-10-17T02:54:03;12.60;99.90
22192;DHT22;11261;52.456;10.850;2022-10-17T02:56:36;12.70;99.90
22192;DHT22;11261;52.456;10.850;2022-10-17T02:59:08;12.70;99.90
22192;DHT22;11261;52.456;10.850;2022-10-17T03:01:37;12.60;99.90
22192;DHT22;11261;52.456;10.850;2022-10-17T03:04:09;12.80;99.90
22192;DHT22;11261;52.456;10.850;2022-10-17T03:06:38;12.70;99.90
22192;DHT22;11261;52.456;10.850;2022-10-17T03:09:06;12.80;99.90
22192;DHT22;11261;52.456;10.850;2022-10-17T03:11:35;12.60;99.90
22192;DHT22;11261;52.456;10.850;2022-10-17T03:14:03;12.50;99.90
22192;DHT22;11261;52.456;10.850;2022-10-17T03:16:31;12.40;99.90
22192;DHT22;11261;52.456;10.850;2022-10-17T03:18:59;12.40;99.90
22192;DHT22;11261;52.456;10.850;2022-10-17T03:21:28;12.40;99.90
22192;DHT22;11261;52.456;10.850;2022-10-17T03:23:56;12.60;99.90
22192;DHT22;11261;52.456;10.850;2022-10-17T03:26:24;12.40;99.90
22192;DHT22;11261;52.456;10.850;2022-10-17T03:28:52;12.40;99.90
22192;DHT22;11261;52.456;10.850;2022-10-17T03:31:21;12.50;99.90
22192;DHT22;11261;52.456;10.850;2022-10-17T03:33:49;12.50;99.90
22192;DHT22;11261;52.456;10.850;2022-10-17T03:36:18;12.50;99.90
22192;DHT22;11261;52.456;10.850;2022-10-17T03:38:48;12.50;99.90
22192;DHT22;11261;52.456;10.850;2022-10-17T03:41:19;12.40;99.90
22192;DHT22;11261;52.456;10.850;2022-10-17T03:43:48;12.40;99.90
22192;DHT22;11261;52.456;10.850;2022-10-17T03:46:16;12.40;99.90
22192;DHT22;11261;52.456;10.850;2022-10-17T03:48:44;12.50;99.90
22192;DHT22;11261;52.456;10.850;2022-10-17T03:51:13;12.50;99.90
22192;DHT22;11261;52.456;10.850;2022-10-17T03:53:41;12.50;99.90
22192;DHT22;11261;52.456;10.850;2022-10-17T03:56:12;12.60;99.90
22192;DHT22;11261;52.456;10.850;2022-10-17T03:58:41;12.60;99.90
22192;DHT22;11261;52.456;10.850;2022-10-17T04:01:11;12.50;99.90
22192;DHT22;11261;52.456;10.850;2022-10-17T04:03:40;12.30;99.90
22192;DHT22;11261;52.456;10.850;2022-10-17T04:06:11;12.40;99.90
22192;DHT22;11261;52.456;10.850;2022-10-17T04:08:39;12.40;99.90
22192;DHT22;11261;52.456;10.850;2022-10-17T04:11:12;12.40;99.90
22192;DHT22;11261;52.456;10.850;2022-10-17T04:13:40;12.40;99.90
22192;DHT22;11261;52.456;10.850;2022-10-17T04:16:11;12.40;99.90
22192;DHT22;11261;52.456;10.850;2022-10-17T04:18:40;12.40;99.90
22192;DHT22;11261;52.456;10.850;2022-10-17T04:21:09;12.30;99.90
22192;DHT22;11261;52.456;10.850;2022-10-17T04:23:37;12.30;99.90
22192;DHT22;11261;52.456;10.850;2022-10-17T04:26:05;12.20;99.90
22192;DHT22;11261;52.456;10.850;2022-10-17T04:28:36;12.30;99.90
22192;DHT22;11261;52.456;10.850;2022-10-17T04:31:06;12.30;99.90
22192;DHT22;11261;52.456;10.850;2022-10-17T04:33:34;12.30;99.90
22192;DHT22;11261;52.456;10.850;2022-10-17T04:36:04;12.30;99.90
22192;DHT22;11261;52.456;10.850;2022-10-17T04:38:33;12.30;99.90
22192;DHT22;11261;52.456;10.850;2022-10-17T04:41:05;12.20;99.90
22192;DHT22;11261;52.456;10.850;2022-10-17T04:43:36;12.10;99.90
22192;DHT22;11261;52.456;10.850;2022-10-17T04:46:06;12.00;99.90
22192;DHT22;11261;52.456;10.850;2022-10-17T04:48:35;12.10;99.90
22192;DHT22;11261;52.456;10.850;2022-10-17T04:51:04;12.20;99.90
22192;DHT22;11261;52.456;10.850;2022-10-17T04:53:34;12.20;99.90
22192;DHT22;11261;52.456;10.850;2022-10-17T04:56:07;12.20;99.90
22192;DHT22;11261;52.456;10.850;2022-10-17T04:58:37;12.20;99.90
22192;DHT22;11261;52.456;10.850;2022-10-17T05:01:06;12.20;99.90
22192;DHT22;11261;52.456;10.850;2022-10-17T05:03:35;12.20;99.90
22192;DHT22;11261;52.456;10.850;2022-10-17T05:06:04;12.20;99.90
22192;DHT22;11261;52.456;10.850;2022-10-17T05:08:33;12.20;99.90
22192;DHT22;11261;52.456;10.850;2022-10-17T05:11:02;12.20;99.90
22192;DHT22;11261;52.456;10.850;2022-10-17T05:13:31;12.10;99.90
22192;DHT22;11261;52.456;10.850;2022-10-17T05:16:01;12.10;99.90
22192;DHT22;11261;52.456;10.850;2022-10-17T05:18:29;12.10;99.90
22192;DHT22;11261;52.456;10.850;2022-10-17T05:20:57;12.10;99.90
22192;DHT22;11261;52.456;10.850;2022-10-17T05:23:28;12.10;99.90
22192;DHT22;11261;52.456;10.850;2022-10-17T05:25:56;12.10;99.90
22192;DHT22;11261;52.456;10.850;2022-10-17T05:28:24;12.00;99.90
22192;DHT22;11261;52.456;10.850;2022-10-17T05:30:52;12.10;99.90
22192;DHT22;11261;52.456;10.850;2022-10-17T05:33:23;12.00;99.90
22192;DHT22;11261;52.456;10.850;2022-10-17T05:35:51;12.10;99.90
22192;DHT22;11261;52.456;10.850;2022-10-17T05:38:19;12.00;99.90
22192;DHT22;11261;52.456;10.850;2022-10-17T05:40:47;12.00;99.90
22192;DHT22;11261;52.456;10.850;2022-10-17T05:43:15;11.90;99.90
22192;DHT22;11261;52.456;10.850;2022-10-17T05:45:43;12.00;99.90
22192;DHT22;11261;52.456;10.850;2022-10-17T05:48:11;12.00;99.90
22192;DHT22;11261;52.456;10.850;2022-10-17T05:50:41;12.00;99.90
22192;DHT22;11261;52.456;10.850;2022-10-17T05:53:09;12.00;99.90
22192;DHT22;11261;52.456;10.850;2022-10-17T05:55:38;12.00;99.90
22192;DHT22;11261;52.456;10.850;2022-10-17T05:58:07;12.00;99.90
22192;DHT22;11261;52.456;10.850;2022-10-17T06:00:43;12.00;99.90
22192;DHT22;11261;52.456;10.850;2022-10-17T06:03:16;12.00;99.90
22192;DHT22;11261;52.456;10.850;2022-10-17T06:05:46;12.00;99.90
22192;DHT22;11261;52.456;10.850;2022-10-17T06:08:14;12.10;99.90
22192;DHT22;11261;52.456;10.850;2022-10-17T06:10:42;12.10;99.90
22192;DHT22;11261;52.456;10.850;2022-10-17T06:13:10;12.10;99.90
22192;DHT22;11261;52.456;10.850;2022-10-17T06:15:38;12.10;99.90
22192;DHT22;11261;52.456;10.850;2022-10-17T06:18:07;12.20;99.90
22192;DHT22;11261;52.456;10.850;2022-10-17T06:20:35;12.20;99.90
22192;DHT22;11261;52.456;10.850;2022-10-17T06:23:06;12.20;99.90
22192;DHT22;11261;52.456;10.850;2022-10-17T06:25:35;12.30;99.90
22192;DHT22;11261;52.456;10.850;2022-10-17T06:28:03;12.30;99.90
22192;DHT22;11261;52.456;10.850;2022-10-17T06:30:31;12.30;99.90
22192;DHT22;11261;52.456;10.850;2022-10-17T06:32:59;12.50;99.90
22192;DHT22;11261;52.456;10.850;2022-10-17T06:35:28;12.60;99.90
22192;DHT22;11261;52.456;10.850;2022-10-17T06:37:56;12.90;99.90
22192;DHT22;11261;52.456;10.850;2022-10-17T06:40:26;13.30;99.90
22192;DHT22;11261;52.456;10.850;2022-10-17T06:42:55;13.40;99.90
22192;DHT22;11261;52.456;10.850;2022-10-17T06:45:23;13.40;99.90
22192;DHT22;11261;52.456;10.850;2022-10-17T06:47:51;13.40;99.90
22192;DHT22;11261;52.456;10.850;2022-10-17T06:50:19;13.80;99.90
22192;DHT22;11261;52.456;10.850;2022-10-17T06:52:50;13.90;99.90
22192;DHT22;11261;52.456;10.850;2022-10-17T06:55:18;14.00;99.90
22192;DHT22;11261;52.456;10.850;2022-10-17T06:57:50;14.10;99.90
22192;DHT22;11261;52.456;10.850;2022-10-17T07:00:21;14.10;99.90
22192;DHT22;11261;52.456;10.850;2022-10-17T07:02:49;14.10;99.90
22192;DHT22;11261;52.456;10.850;2022-10-17T07:05:17;14.10;99.90
22192;DHT22;11261;52.456;10.850;2022-10-17T07:07:46;14.30;99.90
22192;DHT22;11261;52.456;10.850;2022-10-17T07:10:17;14.70;99.90
22192;DHT22;11261;52.456;10.850;2022-10-17T07:12:45;15.00;99.90
22192;DHT22;11261;52.456;10.850;2022-10-17T07:15:15;15.30;99.90
22192;DHT22;11261;52.456;10.850;2022-10-17T07:17:47;16.10;99.90
22192;DHT22;11261;52.456;10.850;2022-10-17T07:20:16;16.60;99.90
22192;DHT22;11261;52.456;10.850;2022-10-17T07:22:44;16.80;99.90
22192;DHT22;11261;52.456;10.850;2022-10-17T07:25:12;17.20;99.90
22192;DHT22;11261;52.456;10.850;2022-10-17T07:27:41;17.80;99.90
22192;DHT22;11261;52.456;10.850;2022-10-17T07:30:10;18.00;99.90
22192;DHT22;11261;52.456;10.850;2022-10-17T07:32:40;18.10;99.90
22192;DHT22;11261;52.456;10.850;2022-10-17T07:35:09;18.50;99.90
22192;DHT22;11261;52.456;10.850;2022-10-17T07:37:38;18.30;99.90
22192;DHT22;11261;52.456;10.850;2022-10-17T07:40:07;18.10;99.90
22192;DHT22;11261;52.456;10.850;2022-10-17T07:42:36;18.90;99.90
22192;DHT22;11261;52.456;10.850;2022-10-17T07:45:10;21.10;99.90
22192;DHT22;11261;52.456;10.850;2022-10-17T07:47:39;21.60;99.90
22192;DHT22;11261;52.456;10.850;2022-10-17T07:50:08;21.60;99.90
22192;DHT22;11261;52.456;10.850;2022-10-17T07:52:36;21.70;99.90
22192;DHT22;11261;52.456;10.850;2022-10-17T07:55:06;21.60;99.90
22192;DHT22;11261;52.456;10.850;2022-10-17T07:57:34;20.90;99.90
22192;DHT22;11261;52.456;10.850;2022-10-17T08:00:02;19.80;99.90
22192;DHT22;11261;52.456;10.850;2022-10-17T08:02:31;19.30;99.90
22192;DHT22;11261;52.456;10.850;2022-10-17T08:05:00;19.30;99.90
22192;DHT22;11261;52.456;10.850;2022-10-17T08:07:29;19.20;99.90
22192;DHT22;11261;52.456;10.850;2022-10-17T08:09:57;19.80;99.90
22192;DHT22;11261;52.456;10.850;2022-10-17T08:12:25;20.00;99.90
22192;DHT22;11261;52.456;10.850;2022-10-17T08:14:58;19.50;99.90
22192;DHT22;11261;52.456;10.850;2022-10-17T08:17:26;19.50;99.90
22192;DHT22;11261;52.456;10.850;2022-10-17T08:19:54;19.80;99.90
22192;DHT22;11261;52.456;10.850;2022-10-17T08:22:24;19.80;99.90
22192;DHT22;11261;52.456;10.850;2022-10-17T08:24:52;20.20;99.90
22192;DHT22;11261;52.456;10.850;2022-10-17T08:27:20;20.60;99.90
22192;DHT22;11261;52.456;10.850;2022-10-17T08:29:51;20.60;99.90
22192;DHT22;11261;52.456;10.850;2022-10-17T08:32:20;20.90;99.90
22192;DHT22;11261;52.456;10.850;2022-10-17T08:34:49;20.80;99.90
22192;DHT22;11261;52.456;10.850;2022-10-17T08:37:17;20.80;99.90
22192;DHT22;11261;52.456;10.850;2022-10-17T08:39:47;20.80;99.90
22192;DHT22;11261;52.456;10.850;2022-10-17T08:42:30;20.70;99.90
22192;DHT22;11261;52.456;10.850;2022-10-17T08:45:10;20.50;99.90
22192;DHT22;11261;52.456;10.850;2022-10-17T08:47:42;20.70;99.90
22192;DHT22;11261;52.456;10.850;2022-10-17T08:50:17;20.80;99.90
22192;DHT22;11261;52.456;10.850;2022-10-17T08:52:52;20.60;99.90
22192;DHT22;11261;52.456;10.850;2022-10-17T08:55:28;20.80;99.90
22192;DHT22;11261;52.456;10.850;2022-10-17T08:57:56;20.90;99.90
22192;DHT22;11261;52.456;10.850;2022-10-17T09:00:25;20.90;99.90
22192;DHT22;11261;52.456;10.850;2022-10-17T09:03:04;20.70;99.90
22192;DHT22;11261;52.456;10.850;2022-10-17T09:05:41;21.00;99.90
22192;DHT22;11261;52.456;10.850;2022-10-17T09:08:20;20.80;99.90
22192;DHT22;11261;52.456;10.850;2022-10-17T09:10:56;21.10;99.90
22192;DHT22;11261;52.456;10.850;2022-10-17T09:13:33;21.50;99.90
22192;DHT22;11261;52.456;10.850;2022-10-17T09:16:14;21.40;99.90
22192;DHT22;11261;52.456;10.850;2022-10-17T09:18:55;21.60;99.90
22192;DHT22;11261;52.456;10.850;2022-10-17T09:21:34;21.90;99.90
22192;DHT22;11261;52.456;10.850;2022-10-17T09:24:08;22.30;99.90
22192;DHT22;11261;52.456;10.850;2022-10-17T09:26:43;22.40;99.90
22192;DHT22;11261;52.456;10.850;2022-10-17T09:29:19;22.00;99.90
22192;DHT22;11261;52.456;10.850;2022-10-17T09:31:52;21.90;99.90
22192;DHT22;11261;52.456;10.850;2022-10-17T09:34:26;21.50;99.90
22192;DHT22;11261;52.456;10.850;2022-10-17T09:36:56;21.40;99.90
22192;DHT22;11261;52.456;10.850;2022-10-17T09:39:25;21.30;99.90
22192;DHT22;11261;52.456;10.850;2022-10-17T09:41:59;21.40;99.90
22192;DHT22;11261;52.456;10.850;2022-10-17T09:44:30;21.40;99.90
22192;DHT22;11261;52.456;10.850;2022-10-17T09:47:14;21.60;99.90
22192;DHT22;11261;52.456;10.850;2022-10-17T09:49:46;21.60;99.90
22192;DHT22;11261;52.456;10.850;2022-10-17T09:52:17;21.70;99.90
22192;DHT22;11261;52.456;10.850;2022-10-17T09:54:49;21.70;99.90
22192;DHT22;11261;52.456;10.850;2022-10-17T09:57:20;21.90;99.90
22192;DHT22;11261;52.456;10.850;2022-10-17T09:59:57;22.10;99.90
22192;DHT22;11261;52.456;10.850;2022-10-17T10:02:27;22.30;99.90
22192;DHT22;11261;52.456;10.850;2022-10-17T10:04:59;22.30;99.90
22192;DHT22;11261;52.456;10.850;2022-10-17T10:07:32;22.50;99.90
22192;DHT22;11261;52.456;10.850;2022-10-17T10:10:02;22.50;99.90
22192;DHT22;11261;52.456;10.850;2022-10-17T10:12:35;22.50;99.90
22192;DHT22;11261;52.456;10.850;2022-10-17T10:15:31;22.60;99.90
22192;DHT22;11261;52.456;10.850;2022-10-17T10:18:00;22.80;99.90
22192;DHT22;11261;52.456;10.850;2022-10-17T10:20:32;22.50;99.90
22192;DHT22;11261;52.456;10.850;2022-10-17T10:23:07;22.50;99.90
22192;DHT22;11261;52.456;10.850;2022-10-17T10:25:37;22.60;99.90
22192;DHT22;11261;52.456;10.850;2022-10-17T10:28:16;22.70;99.90
22192;DHT22;11261;52.456;10.850;2022-10-17T10:30:48;22.80;99.90
22192;DHT22;11261;52.456;10.850;2022-10-17T10:33:18;23.00;99.90
22192;DHT22;11261;52.456;10.850;2022-10-17T10:35:56;23.40;99.90
22192;DHT22;11261;52.456;10.850;2022-10-17T10:38:24;23.60;99.90
22192;DHT22;11261;52.456;10.850;2022-10-17T10:40:54;23.70;99.90
22192;DHT22;11261;52.456;10.850;2022-10-17T10:43:30;23.70;99.90
22192;DHT22;11261;52.456;10.850;2022-10-17T10:45:59;23.80;99.90
22192;DHT22;11261;52.456;10.850;2022-10-17T10:48:33;23.80;99.90
22192;DHT22;11261;52.456;10.850;2022-10-17T10:51:04;24.00;99.90
22192;DHT22;11261;52.456;10.850;2022-10-17T10:53:46;23.70;99.90
22192;DHT22;11261;52.456;10.850;2022-10-17T10:56:17;23.70;99.90
22192;DHT22;11261;52.456;10.850;2022-10-17T10:58:52;23.60;99.90
22192;DHT22;11261;52.456;10.850;2022-10-17T11:01:27;23.60;99.90
22192;DHT22;11261;52.456;10.850;2022-10-17T11:04:21;23.60;99.90
22192;DHT22;11261;52.456;10.850;2022-10-17T11:06:54;23.70;99.90
22192;DHT22;11261;52.456;10.850;2022-10-17T11:09:33;23.70;99.90
22192;DHT22;11261;52.456;10.850;2022-10-17T11:12:08;23.60;99.90
22192;DHT22;11261;52.456;10.850;2022-10-17T11:14:43;23.60;99.90
22192;DHT22;11261;52.456;10.850;2022-10-17T11:17:22;23.80;99.90
22192;DHT22;11261;52.456;10.850;2022-10-17T11:20:00;23.90;99.90
22192;DHT22;11261;52.456;10.850;2022-10-17T11:22:31;24.10;99.90
22192;DHT22;11261;52.456;10.850;2022-10-17T11:25:04;24.10;99.90
22192;DHT22;11261;52.456;10.850;2022-10-17T11:27:33;24.10;99.90
22192;DHT22;11261;52.456;10.850;2022-10-17T11:30:03;24.10;99.90
22192;DHT22;11261;52.456;10.850;2022-10-17T11:32:36;23.90;99.90
22192;DHT22;11261;52.456;10.850;2022-10-17T11:35:15;23.80;99.90
22192;DHT22;11261;52.456;10.850;2022-10-17T11:37:49;23.70;99.90
22192;DHT22;11261;52.456;10.850;2022-10-17T11:40:21;23.70;99.90
22192;DHT22;11261;52.456;10.850;2022-10-17T11:42:58;23.70;99.90
22192;DHT22;11261;52.456;10.850;2022-10-17T11:45:32;23.60;99.90
22192;DHT22;11261;52.456;10.850;2022-10-17T11:48:05;23.60;99.90
22192;DHT22;11261;52.456;10.850;2022-10-17T11:50:36;23.70;99.90
22192;DHT22;11261;52.456;10.850;2022-10-17T11:53:28;23.50;99.90
22192;DHT22;11261;52.456;10.850;2022-10-17T11:55:59;23.50;99.90
22192;DHT22;11261;52.456;10.850;2022-10-17T11:58:34;23.50;99.90
22192;DHT22;11261;52.456;10.850;2022-10-17T12:01:13;23.60;99.90
22192;DHT22;11261;52.456;10.850;2022-10-17T12:03:50;23.50;99.90
22192;DHT22;11261;52.456;10.850;2022-10-17T12:06:33;23.50;99.90
22192;DHT22;11261;52.456;10.850;2022-10-17T12:09:09;23.50;99.90
22192;DHT22;11261;52.456;10.850;2022-10-17T12:11:44;23.30;99.90
22192;DHT22;11261;52.456;10.850;2022-10-17T12:14:37;23.40;99.90
22192;DHT22;11261;52.456;10.850;2022-10-17T12:17:23;23.40;99.90
22192;DHT22;11261;52.456;10.850;2022-10-17T12:19:53;23.20;99.90
22192;DHT22;11261;52.456;10.850;2022-10-17T12:22:22;23.40;99.90
22192;DHT22;11261;52.456;10.850;2022-10-17T12:24:54;23.10;99.90
22192;DHT22;11261;52.456;10.850;2022-10-17T12:27:35;23.20;99.90
22192;DHT22;11261;52.456;10.850;2022-10-17T12:30:13;23.40;99.90
22192;DHT22;11261;52.456;10.850;2022-10-17T12:33:00;23.20;99.90
22192;DHT22;11261;52.456;10.850;2022-10-17T12:35:35;23.00;99.90
22192;DHT22;11261;52.456;10.850;2022-10-17T12:38:26;23.00;99.90
22192;DHT22;11261;52.456;10.850;2022-10-17T12:41:04;23.20;99.90
22192;DHT22;11261;52.456;10.850;2022-10-17T12:43:51;23.30;99.90
22192;DHT22;11261;52.456;10.850;2022-10-17T12:46:47;23.40;99.90
22192;DHT22;11261;52.456;10.850;2022-10-17T12:49:23;23.50;99.90
22192;DHT22;11261;52.456;10.850;2022-10-17T12:52:28;23.40;99.90
22192;DHT22;11261;52.456;10.850;2022-10-17T12:55:16;23.50;99.90
22192;DHT22;11261;52.456;10.850;2022-10-17T12:57:52;23.50;99.90
22192;DHT22;11261;52.456;10.850;2022-10-17T13:00:27;23.50;99.90
22192;DHT22;11261;52.456;10.850;2022-10-17T13:03:02;23.60;99.90
22192;DHT22;11261;52.456;10.850;2022-10-17T13:05:34;23.60;99.90
22192;DHT22;11261;52.456;10.850;2022-10-17T13:08:06;23.60;99.90
22192;DHT22;11261;52.456;10.850;2022-10-17T13:10:40;23.70;99.90
22192;DHT22;11261;52.456;10.850;2022-10-17T13:13:19;23.70;99.90
22192;DHT22;11261;52.456;10.850;2022-10-17T13:15:49;23.70;99.90
22192;DHT22;11261;52.456;10.850;2022-10-17T13:18:20;23.70;99.90
22192;DHT22;11261;52.456;10.850;2022-10-17T13:20:59;23.80;99.90
22192;DHT22;11261;52.456;10.850;2022-10-17T13:23:30;23.70;99.90
22192;DHT22;11261;52.456;10.850;2022-10-17T13:26:13;23.70;99.90
22192;DHT22;11261;52.456;10.850;2022-10-17T13:28:42;23.70;99.90
22192;DHT22;11261;52.456;10.850;2022-10-17T13:31:27;23.70;99.90
22192;DHT22;11261;52.456;10.850;2022-10-17T13:33:58;23.70;99.90
22192;DHT22;11261;52.456;10.850;2022-10-17T13:36:29;23.80;99.90
22192;DHT22;11261;52.456;10.850;2022-10-17T13:38:59;23.70;99.90
22192;DHT22;11261;52.456;10.850;2022-10-17T13:41:28;23.60;99.90
22192;DHT22;11261;52.456;10.850;2022-10-17T13:44:06;23.70;99.90
22192;DHT22;11261;52.456;10.850;2022-10-17T13:46:38;23.70;99.90
22192;DHT22;11261;52.456;10.850;2022-10-17T13:49:14;23.70;99.90
22192;DHT22;11261;52.456;10.850;2022-10-17T13:51:47;23.60;99.90
22192;DHT22;11261;52.456;10.850;2022-10-17T13:54:34;23.70;99.90
22192;DHT22;11261;52.456;10.850;2022-10-17T13:57:04;23.60;99.90
22192;DHT22;11261;52.456;10.850;2022-10-17T13:59:36;23.60;99.90
22192;DHT22;11261;52.456;10.850;2022-10-17T14:02:05;23.60;99.90
22192;DHT22;11261;52.456;10.850;2022-10-17T14:04:39;23.60;99.90
22192;DHT22;11261;52.456;10.850;2022-10-17T14:07:33;23.50;99.90
22192;DHT22;11261;52.456;10.850;2022-10-17T14:10:24;23.50;99.90
22192;DHT22;11261;52.456;10.850;2022-10-17T14:12:53;23.40;99.90
22192;DHT22;11261;52.456;10.850;2022-10-17T14:15:26;23.40;99.90
22192;DHT22;11261;52.456;10.850;2022-10-17T14:17:56;23.40;99.90
22192;DHT22;11261;52.456;10.850;2022-10-17T14:20:25;23.30;99.90
22192;DHT22;11261;52.456;10.850;2022-10-17T14:23:32;23.20;99.90
22192;DHT22;11261;52.456;10.850;2022-10-17T14:26:06;23.20;99.90
22192;DHT22;11261;52.456;10.850;2022-10-17T14:28:34;23.20;99.90
22192;DHT22;11261;52.456;10.850;2022-10-17T14:31:12;23.10;99.90
22192;DHT22;11261;52.456;10.850;2022-10-17T14:33:46;23.10;99.90
22192;DHT22;11261;52.456;10.850;2022-10-17T14:36:17;23.00;99.90
22192;DHT22;11261;52.456;10.850;2022-10-17T14:38:50;23.00;99.90
22192;DHT22;11261;52.456;10.850;2022-10-17T14:41:26;23.10;99.90
22192;DHT22;11261;52.456;10.850;2022-10-17T14:44:18;23.00;99.90
22192;DHT22;11261;52.456;10.850;2022-10-17T14:46:51;23.00;99.90
22192;DHT22;11261;52.456;10.850;2022-10-17T14:49:31;23.00;99.90
22192;DHT22;11261;52.456;10.850;2022-10-17T14:54:55;22.90;99.90
22192;DHT22;11261;52.456;10.850;2022-10-17T14:57:26;22.80;99.90
22192;DHT22;11261;52.456;10.850;2022-10-17T14:59:55;22.70;99.90
22192;DHT22;11261;52.456;10.850;2022-10-17T15:02:24;22.70;99.90
22192;DHT22;11261;52.456;10.850;2022-10-17T15:04:53;22.70;99.90
22192;DHT22;11261;52.456;10.850;2022-10-17T15:07:22;22.70;99.90
22192;DHT22;11261;52.456;10.850;2022-10-17T15:09:51;22.70;99.90
22192;DHT22;11261;52.456;10.850;2022-10-17T15:12:23;22.70;99.90
22192;DHT22;11261;52.456;10.850;2022-10-17T15:14:52;22.60;99.90
22192;DHT22;11261;52.456;10.850;2022-10-17T15:17:23;22.50;99.90
22192;DHT22;11261;52.456;10.850;2022-10-17T15:19:51;22.40;99.90
22192;DHT22;11261;52.456;10.850;2022-10-17T15:22:20;22.40;99.90
22192;DHT22;11261;52.456;10.850;2022-10-17T15:24:48;22.30;99.90
22192;DHT22;11261;52.456;10.850;2022-10-17T15:27:17;22.40;99.90
22192;DHT22;11261;52.456;10.850;2022-10-17T15:29:47;22.30;99.90
22192;DHT22;11261;52.456;10.850;2022-10-17T15:32:16;22.30;99.90
22192;DHT22;11261;52.456;10.850;2022-10-17T15:34:44;22.30;99.90
22192;DHT22;11261;52.456;10.850;2022-10-17T15:37:16;22.20;99.90
22192;DHT22;11261;52.456;10.850;2022-10-17T15:39:47;22.20;99.90
22192;DHT22;11261;52.456;10.850;2022-10-17T15:42:20;22.30;99.90
22192;DHT22;11261;52.456;10.850;2022-10-17T15:44:50;22.20;99.90
22192;DHT22;11261;52.456;10.850;2022-10-17T15:47:23;22.20;99.90
22192;DHT22;11261;52.456;10.850;2022-10-17T15:49:52;22.00;99.90
22192;DHT22;11261;52.456;10.850;2022-10-17T15:52:20;21.90;99.90
22192;DHT22;11261;52.456;10.850;2022-10-17T15:54:49;21.80;99.90